sensor_id;sensor_type;location;lat;lon;timestamp;temperature;humidity
9776;DHT22;4927;52.472;13.108;2023-06-24T00:00:54;16.20;99.90
9776;DHT22;4927;52.472;13.108;2023-06-24T00:01:55;16.20;99.90
9776;DHT22;4927;52.472;13.108;2023-06-24T00:02:57;16.20;99.90
9776;DHT22;4927;52.472;13.108;2023-06-24T00:04:00;16.20;99.90
9776;DHT22;4927;52.472;13.108;2023-06-24T00:05:02;16.20;99.90
9776;DHT22;4927;52.472;13.108;2023-06-24T00:06:03;16.20;99.90
9776;DHT22;4927;52.472;13.108;2023-06-24T00:07:04;16.20;99.90
9776;DHT22;4927;52.472;13.108;2023-06-24T00:08:06;16.20;99.90
9776;DHT22;4927;52.472;13.108;2023-06-24T00:09:08;16.20;99.90
9776;DHT22;4927;52.472;13.108;2023-06-24T00:10:10;16.20;99.90
9776;DHT22;4927;52.472;13.108;2023-06-24T00:11:11;16.20;99.90
9776;DHT22;4927;52.472;13.108;2023-06-24T00:12:13;16.20;99.90
9776;DHT22;4927;52.472;13.108;2023-06-24T00:13:15;16.20;99.90
9776;DHT22;4927;52.472;13.108;2023-06-24T00:14:16;16.20;99.90
9776;DHT22;4927;52.472;13.108;2023-06-24T00:15:18;16.20;99.90
9776;DHT22;4927;52.472;13.108;2023-06-24T00:16:19;16.20;99.90
9776;DHT22;4927;52.472;13.108;2023-06-24T00:17:21;16.20;99.90
9776;DHT22;4927;52.472;13.108;2023-06-24T00:18:22;16.20;99.90
9776;DHT22;4927;52.472;13.108;2023-06-24T00:19:25;16.20;99.90
9776;DHT22;4927;52.472;13.108;2023-06-24T00:20:26;16.20;99.90
9776;DHT22;4927;52.472;13.108;2023-06-24T00:21:27;16.20;99.90
9776;DHT22;4927;52.472;13.108;2023-06-24T00:22:30;16.20;99.90
9776;DHT22;4927;52.472;13.108;2023-06-24T00:23:31;16.20;99.90
9776;DHT22;4927;52.472;13.108;2023-06-24T00:24:34;16.20;99.90
9776;DHT22;4927;52.472;13.108;2023-06-24T00:25:35;16.20;99.90
9776;DHT22;4927;52.472;13.108;2023-06-24T00:26:37;16.20;99.90
9776;DHT22;4927;52.472;13.108;2023-06-24T00:27:39;16.20;99.90
9776;DHT22;4927;52.472;13.108;2023-06-24T00:28:40;16.20;99.90
9776;DHT22;4927;52.472;13.108;2023-06-24T00:29:42;16.20;99.90
9776;DHT22;4927;52.472;13.108;2023-06-24T00:30:44;16.20;99.90
9776;DHT22;4927;52.472;13.108;2023-06-24T00:31:46;16.20;99.90
9776;DHT22;4927;52.472;13.108;2023-06-24T00:32:48;16.20;99.90
9776;DHT22;4927;52.472;13.108;2023-06-24T00:33:49;16.20;99.90
9776;DHT22;4927;52.472;13.108;2023-06-24T00:34:51;16.20;99.90
9776;DHT22;4927;52.472;13.108;2023-06-24T00:35:52;16.20;99.90
9776;DHT22;4927;52.472;13.108;2023-06-24T00:36:54;16.20;99.90
9776;DHT22;4927;52.472;13.108;2023-06-24T00:37:56;16.10;99.90
9776;DHT22;4927;52.472;13.108;2023-06-24T00:38:57;16.10;99.90
9776;DHT22;4927;52.472;13.108;2023-06-24T00:39:59;16.10;99.90
9776;DHT22;4927;52.472;13.108;2023-06-24T00:41:01;16.10;99.90
9776;DHT22;4927;52.472;13.108;2023-06-24T00:42:03;16.10;99.90
9776;DHT22;4927;52.472;13.108;2023-06-24T00:43:05;16.10;99.90
9776;DHT22;4927;52.472;13.108;2023-06-24T00:44:07;16.10;99.90
9776;DHT22;4927;52.472;13.108;2023-06-24T00:45:10;16.10;99.90
9776;DHT22;4927;52.472;13.108;2023-06-24T00:46:12;16.10;99.90
9776;DHT22;4927;52.472;13.108;2023-06-24T00:47:14;16.10;99.90
9776;DHT22;4927;52.472;13.108;2023-06-24T00:48:16;16.10;99.90
9776;DHT22;4927;52.472;13.108;2023-06-24T00:49:17;16.10;99.90
9776;DHT22;4927;52.472;13.108;2023-06-24T00:50:19;16.10;99.90
9776;DHT22;4927;52.472;13.108;2023-06-24T00:51:22;16.10;99.90
9776;DHT22;4927;52.472;13.108;2023-06-24T00:52:26;16.10;99.90
9776;DHT22;4927;52.472;13.108;2023-06-24T00:53:28;16.10;99.90
9776;DHT22;4927;52.472;13.108;2023-06-24T00:54:29;16.10;99.90
9776;DHT22;4927;52.472;13.108;2023-06-24T00:55:31;16.10;99.90
9776;DHT22;4927;52.472;13.108;2023-06-24T00:56:34;16.00;99.90
9776;DHT22;4927;52.472;13.108;2023-06-24T00:57:35;16.00;99.90
9776;DHT22;4927;52.472;13.108;2023-06-24T00:58:37;16.00;99.90
9776;DHT22;4927;52.472;13.108;2023-06-24T00:59:38;16.00;99.90
9776;DHT22;4927;52.472;13.108;2023-06-24T01:00:40;16.00;99.90
9776;DHT22;4927;52.472;13.108;2023-06-24T01:01:42;16.00;99.90
9776;DHT22;4927;52.472;13.108;2023-06-24T01:02:44;16.00;99.90
9776;DHT22;4927;52.472;13.108;2023-06-24T01:03:46;16.00;99.90
9776;DHT22;4927;52.472;13.108;2023-06-24T01:04:48;16.00;99.90
9776;DHT22;4927;52.472;13.108;2023-06-24T01:05:49;16.00;99.90
9776;DHT22;4927;52.472;13.108;2023-06-24T01:06:50;16.00;99.90
9776;DHT22;4927;52.472;13.108;2023-06-24T01:07:52;16.00;99.90
9776;DHT22;4927;52.472;13.108;2023-06-24T01:08:57;16.00;99.90
9776;DHT22;4927;52.472;13.108;2023-06-24T01:09:58;15.90;99.90
9776;DHT22;4927;52.472;13.108;2023-06-24T01:11:08;15.90;99.90
9776;DHT22;4927;52.472;13.108;2023-06-24T01:12:09;15.90;99.90
9776;DHT22;4927;52.472;13.108;2023-06-24T01:13:11;15.90;99.90
9776;DHT22;4927;52.472;13.108;2023-06-24T01:14:13;15.90;99.90
9776;DHT22;4927;52.472;13.108;2023-06-24T01:15:14;15.90;99.90
9776;DHT22;4927;52.472;13.108;2023-06-24T01:16:26;15.90;99.90
9776;DHT22;4927;52.472;13.108;2023-06-24T01:17:29;15.80;99.90
9776;DHT22;4927;52.472;13.108;2023-06-24T01:18:32;15.80;99.90
9776;DHT22;4927;52.472;13.108;2023-06-24T01:21:06;15.80;99.90
9776;DHT22;4927;52.472;13.108;2023-06-24T01:24:13;15.80;99.90
9776;DHT22;4927;52.472;13.108;2023-06-24T01:27:45;15.70;99.90
9776;DHT22;4927;52.472;13.108;2023-06-24T01:29:01;15.70;99.90
9776;DHT22;4927;52.472;13.108;2023-06-24T01:30:31;15.70;99.90
9776;DHT22;4927;52.472;13.108;2023-06-24T01:31:45;15.70;99.90
9776;DHT22;4927;52.472;13.108;2023-06-24T01:32:52;15.60;99.90
9776;DHT22;4927;52.472;13.108;2023-06-24T01:33:57;15.60;99.90
9776;DHT22;4927;52.472;13.108;2023-06-24T01:35:00;15.60;99.90
9776;DHT22;4927;52.472;13.108;2023-06-24T01:36:01;15.60;99.90
9776;DHT22;4927;52.472;13.108;2023-06-24T01:37:08;15.60;99.90
9776;DHT22;4927;52.472;13.108;2023-06-24T01:38:12;15.60;99.90
9776;DHT22;4927;52.472;13.108;2023-06-24T01:39:12;15.50;99.90
9776;DHT22;4927;52.472;13.108;2023-06-24T01:40:17;15.50;99.90
9776;DHT22;4927;52.472;13.108;2023-06-24T01:41:18;15.50;99.90
9776;DHT22;4927;52.472;13.108;2023-06-24T01:42:19;15.50;99.90
9776;DHT22;4927;52.472;13.108;2023-06-24T01:43:21;15.50;99.90
9776;DHT22;4927;52.472;13.108;2023-06-24T01:44:22;15.50;99.90
9776;DHT22;4927;52.472;13.108;2023-06-24T01:45:26;15.50;99.90
9776;DHT22;4927;52.472;13.108;2023-06-24T01:46:28;15.40;99.90
9776;DHT22;4927;52.472;13.108;2023-06-24T01:47:28;15.40;99.90
9776;DHT22;4927;52.472;13.108;2023-06-24T01:48:32;15.40;99.90
9776;DHT22;4927;52.472;13.108;2023-06-24T01:49:34;15.40;99.90
9776;DHT22;4927;52.472;13.108;2023-06-24T01:50:35;15.40;99.90
9776;DHT22;4927;52.472;13.108;2023-06-24T01:51:37;15.40;99.90
9776;DHT22;4927;52.472;13.108;2023-06-24T01:52:41;15.40;99.90
9776;DHT22;4927;52.472;13.108;2023-06-24T01:53:42;15.40;99.90
9776;DHT22;4927;52.472;13.108;2023-06-24T01:54:43;15.30;99.90
9776;DHT22;4927;52.472;13.108;2023-06-24T01:55:44;15.30;99.90
9776;DHT22;4927;52.472;13.108;2023-06-24T01:56:46;15.30;99.90
9776;DHT22;4927;52.472;13.108;2023-06-24T01:57:48;15.30;99.90
9776;DHT22;4927;52.472;13.108;2023-06-24T01:58:50;15.20;99.90
9776;DHT22;4927;52.472;13.108;2023-06-24T01:59:52;15.20;99.90
9776;DHT22;4927;52.472;13.108;2023-06-24T02:00:53;15.20;99.90
9776;DHT22;4927;52.472;13.108;2023-06-24T02:01:54;15.20;99.90
9776;DHT22;4927;52.472;13.108;2023-06-24T02:02:56;15.20;99.90
9776;DHT22;4927;52.472;13.108;2023-06-24T02:04:00;15.20;99.90
9776;DHT22;4927;52.472;13.108;2023-06-24T02:05:01;15.10;99.90
9776;DHT22;4927;52.472;13.108;2023-06-24T02:06:03;15.10;99.90
9776;DHT22;4927;52.472;13.108;2023-06-24T02:07:05;15.10;99.90
9776;DHT22;4927;52.472;13.108;2023-06-24T02:08:08;15.10;99.90
9776;DHT22;4927;52.472;13.108;2023-06-24T02:09:10;15.10;99.90
9776;DHT22;4927;52.472;13.108;2023-06-24T02:10:11;15.00;99.90
9776;DHT22;4927;52.472;13.108;2023-06-24T02:11:13;15.00;99.90
9776;DHT22;4927;52.472;13.108;2023-06-24T02:12:14;15.00;99.90
9776;DHT22;4927;52.472;13.108;2023-06-24T02:13:16;15.00;99.90
9776;DHT22;4927;52.472;13.108;2023-06-24T02:14:17;15.00;99.90
9776;DHT22;4927;52.472;13.108;2023-06-24T02:15:19;14.90;99.90
9776;DHT22;4927;52.472;13.108;2023-06-24T02:16:21;14.90;99.90
9776;DHT22;4927;52.472;13.108;2023-06-24T02:17:24;14.90;99.90
9776;DHT22;4927;52.472;13.108;2023-06-24T02:18:26;14.90;99.90
9776;DHT22;4927;52.472;13.108;2023-06-24T02:19:29;14.90;99.90
9776;DHT22;4927;52.472;13.108;2023-06-24T02:20:29;14.90;99.90
9776;DHT22;4927;52.472;13.108;2023-06-24T02:21:30;14.80;99.90
9776;DHT22;4927;52.472;13.108;2023-06-24T02:22:32;14.80;99.90
9776;DHT22;4927;52.472;13.108;2023-06-24T02:23:34;14.80;99.90
9776;DHT22;4927;52.472;13.108;2023-06-24T02:24:36;14.80;99.90
9776;DHT22;4927;52.472;13.108;2023-06-24T02:25:39;14.80;99.90
9776;DHT22;4927;52.472;13.108;2023-06-24T02:26:40;14.80;99.90
9776;DHT22;4927;52.472;13.108;2023-06-24T02:27:42;14.80;99.90
9776;DHT22;4927;52.472;13.108;2023-06-24T02:28:44;14.70;99.90
9776;DHT22;4927;52.472;13.108;2023-06-24T02:29:45;14.70;99.90
9776;DHT22;4927;52.472;13.108;2023-06-24T02:30:47;14.70;99.90
9776;DHT22;4927;52.472;13.108;2023-06-24T02:31:49;14.70;99.90
9776;DHT22;4927;52.472;13.108;2023-06-24T02:32:51;14.70;99.90
9776;DHT22;4927;52.472;13.108;2023-06-24T02:33:53;14.60;99.90
9776;DHT22;4927;52.472;13.108;2023-06-24T02:34:54;14.60;99.90
9776;DHT22;4927;52.472;13.108;2023-06-24T02:35:56;14.60;99.90
9776;DHT22;4927;52.472;13.108;2023-06-24T02:36:58;14.60;99.90
9776;DHT22;4927;52.472;13.108;2023-06-24T02:37:59;14.60;99.90
9776;DHT22;4927;52.472;13.108;2023-06-24T02:39:01;14.60;99.90
9776;DHT22;4927;52.472;13.108;2023-06-24T02:40:03;14.60;99.90
9776;DHT22;4927;52.472;13.108;2023-06-24T02:41:07;14.60;99.90
9776;DHT22;4927;52.472;13.108;2023-06-24T02:42:09;14.60;99.90
9776;DHT22;4927;52.472;13.108;2023-06-24T02:43:10;14.60;99.90
9776;DHT22;4927;52.472;13.108;2023-06-24T02:44:13;14.50;99.90
9776;DHT22;4927;52.472;13.108;2023-06-24T02:45:14;14.50;99.90
9776;DHT22;4927;52.472;13.108;2023-06-24T02:46:16;14.50;99.90
9776;DHT22;4927;52.472;13.108;2023-06-24T02:47:17;14.50;99.90
9776;DHT22;4927;52.472;13.108;2023-06-24T02:48:20;14.50;99.90
9776;DHT22;4927;52.472;13.108;2023-06-24T02:49:21;14.50;99.90
9776;DHT22;4927;52.472;13.108;2023-06-24T02:50:23;14.50;99.90
9776;DHT22;4927;52.472;13.108;2023-06-24T02:51:25;14.40;99.90
9776;DHT22;4927;52.472;13.108;2023-06-24T02:52:26;14.40;99.90
9776;DHT22;4927;52.472;13.108;2023-06-24T02:53:28;14.40;99.90
9776;DHT22;4927;52.472;13.108;2023-06-24T02:54:29;14.40;99.90
9776;DHT22;4927;52.472;13.108;2023-06-24T02:55:32;14.40;99.90
9776;DHT22;4927;52.472;13.108;2023-06-24T02:56:35;14.40;99.90
9776;DHT22;4927;52.472;13.108;2023-06-24T02:57:34;14.40;99.90
9776;DHT22;4927;52.472;13.108;2023-06-24T02:58:36;14.40;99.90
9776;DHT22;4927;52.472;13.108;2023-06-24T02:59:38;14.40;99.90
9776;DHT22;4927;52.472;13.108;2023-06-24T03:00:39;14.40;99.90
9776;DHT22;4927;52.472;13.108;2023-06-24T03:01:41;14.40;99.90
9776;DHT22;4927;52.472;13.108;2023-06-24T03:02:43;14.40;99.90
9776;DHT22;4927;52.472;13.108;2023-06-24T03:03:44;14.40;99.90
9776;DHT22;4927;52.472;13.108;2023-06-24T03:04:46;14.40;99.90
9776;DHT22;4927;52.472;13.108;2023-06-24T03:05:47;14.40;99.90
9776;DHT22;4927;52.472;13.108;2023-06-24T03:06:50;14.40;99.90
9776;DHT22;4927;52.472;13.108;2023-06-24T03:07:52;14.40;99.90
9776;DHT22;4927;52.472;13.108;2023-06-24T03:08:53;14.40;99.90
9776;DHT22;4927;52.472;13.108;2023-06-24T03:09:55;14.40;99.90
9776;DHT22;4927;52.472;13.108;2023-06-24T03:10:57;14.40;99.90
9776;DHT22;4927;52.472;13.108;2023-06-24T03:11:59;14.40;99.90
9776;DHT22;4927;52.472;13.108;2023-06-24T03:13:02;14.40;99.90
9776;DHT22;4927;52.472;13.108;2023-06-24T03:14:04;14.40;99.90
9776;DHT22;4927;52.472;13.108;2023-06-24T03:15:06;14.40;99.90
9776;DHT22;4927;52.472;13.108;2023-06-24T03:16:08;14.40;99.90
9776;DHT22;4927;52.472;13.108;2023-06-24T03:17:10;14.40;99.90
9776;DHT22;4927;52.472;13.108;2023-06-24T03:18:11;14.40;99.90
9776;DHT22;4927;52.472;13.108;2023-06-24T03:19:13;14.40;99.90
9776;DHT22;4927;52.472;13.108;2023-06-24T03:20:15;14.40;99.90
9776;DHT22;4927;52.472;13.108;2023-06-24T03:21:16;14.40;99.90
9776;DHT22;4927;52.472;13.108;2023-06-24T03:22:18;14.40;99.90
9776;DHT22;4927;52.472;13.108;2023-06-24T03:23:20;14.40;99.90
9776;DHT22;4927;52.472;13.108;2023-06-24T03:24:21;14.40;99.90
9776;DHT22;4927;52.472;13.108;2023-06-24T03:25:24;14.30;99.90
9776;DHT22;4927;52.472;13.108;2023-06-24T03:26:35;14.30;99.90
9776;DHT22;4927;52.472;13.108;2023-06-24T03:27:36;14.30;99.90
9776;DHT22;4927;52.472;13.108;2023-06-24T03:28:38;14.30;99.90
9776;DHT22;4927;52.472;13.108;2023-06-24T03:29:40;14.30;99.90
9776;DHT22;4927;52.472;13.108;2023-06-24T03:30:41;14.30;99.90
9776;DHT22;4927;52.472;13.108;2023-06-24T03:31:44;14.30;99.90
9776;DHT22;4927;52.472;13.108;2023-06-24T03:32:45;14.30;99.90
9776;DHT22;4927;52.472;13.108;2023-06-24T03:33:47;14.30;99.90
9776;DHT22;4927;52.472;13.108;2023-06-24T03:34:48;14.30;99.90
9776;DHT22;4927;52.472;13.108;2023-06-24T03:35:51;14.30;99.90
9776;DHT22;4927;52.472;13.108;2023-06-24T03:36:53;14.30;99.90
9776;DHT22;4927;52.472;13.108;2023-06-24T03:37:55;14.30;99.90
9776;DHT22;4927;52.472;13.108;2023-06-24T03:38:56;14.30;99.90
9776;DHT22;4927;52.472;13.108;2023-06-24T03:39:58;14.30;99.90
9776;DHT22;4927;52.472;13.108;2023-06-24T03:40:59;14.30;99.90
9776;DHT22;4927;52.472;13.108;2023-06-24T03:42:01;14.30;99.90
9776;DHT22;4927;52.472;13.108;2023-06-24T03:43:03;14.30;99.90
9776;DHT22;4927;52.472;13.108;2023-06-24T03:44:05;14.30;99.90
9776;DHT22;4927;52.472;13.108;2023-06-24T03:45:07;14.30;99.90
9776;DHT22;4927;52.472;13.108;2023-06-24T03:46:09;14.30;99.90
9776;DHT22;4927;52.472;13.108;2023-06-24T03:47:11;14.30;99.90
9776;DHT22;4927;52.472;13.108;2023-06-24T03:48:12;14.40;99.90
9776;DHT22;4927;52.472;13.108;2023-06-24T03:49:14;14.40;99.90
9776;DHT22;4927;52.472;13.108;2023-06-24T03:50:16;14.40;99.90
9776;DHT22;4927;52.472;13.108;2023-06-24T03:51:17;14.40;99.90
9776;DHT22;4927;52.472;13.108;2023-06-24T03:52:19;14.40;99.90
9776;DHT22;4927;52.472;13.108;2023-06-24T03:53:20;14.40;99.90
9776;DHT22;4927;52.472;13.108;2023-06-24T03:54:22;14.40;99.90
9776;DHT22;4927;52.472;13.108;2023-06-24T03:55:24;14.40;99.90
9776;DHT22;4927;52.472;13.108;2023-06-24T03:56:25;14.40;99.90
9776;DHT22;4927;52.472;13.108;2023-06-24T03:57:27;14.40;99.90
9776;DHT22;4927;52.472;13.108;2023-06-24T03:58:28;14.40;99.90
9776;DHT22;4927;52.472;13.108;2023-06-24T03:59:30;14.40;99.90
9776;DHT22;4927;52.472;13.108;2023-06-24T04:00:32;14.40;99.90
9776;DHT22;4927;52.472;13.108;2023-06-24T04:01:34;14.50;99.90
9776;DHT22;4927;52.472;13.108;2023-06-24T04:02:36;14.50;99.90
9776;DHT22;4927;52.472;13.108;2023-06-24T04:03:37;14.50;99.90
9776;DHT22;4927;52.472;13.108;2023-06-24T04:04:39;14.50;99.90
9776;DHT22;4927;52.472;13.108;2023-06-24T04:05:41;14.50;99.90
9776;DHT22;4927;52.472;13.108;2023-06-24T04:06:42;14.50;99.90
9776;DHT22;4927;52.472;13.108;2023-06-24T04:07:44;14.50;99.90
9776;DHT22;4927;52.472;13.108;2023-06-24T04:08:46;14.50;99.90
9776;DHT22;4927;52.472;13.108;2023-06-24T04:09:48;14.60;99.90
9776;DHT22;4927;52.472;13.108;2023-06-24T04:10:49;14.50;99.90
9776;DHT22;4927;52.472;13.108;2023-06-24T04:11:51;14.60;99.90
9776;DHT22;4927;52.472;13.108;2023-06-24T04:12:54;14.60;99.90
9776;DHT22;4927;52.472;13.108;2023-06-24T04:13:55;14.60;99.90
9776;DHT22;4927;52.472;13.108;2023-06-24T04:14:57;14.60;99.90
9776;DHT22;4927;52.472;13.108;2023-06-24T04:15:59;14.70;99.90
9776;DHT22;4927;52.472;13.108;2023-06-24T04:17:00;14.70;99.90
9776;DHT22;4927;52.472;13.108;2023-06-24T04:18:02;14.70;99.90
9776;DHT22;4927;52.472;13.108;2023-06-24T04:19:04;14.70;99.90
9776;DHT22;4927;52.472;13.108;2023-06-24T04:20:06;14.70;99.90
9776;DHT22;4927;52.472;13.108;2023-06-24T04:21:10;14.70;99.90
9776;DHT22;4927;52.472;13.108;2023-06-24T04:22:12;14.80;99.90
9776;DHT22;4927;52.472;13.108;2023-06-24T04:23:14;14.70;99.90
9776;DHT22;4927;52.472;13.108;2023-06-24T04:24:15;14.80;99.90
9776;DHT22;4927;52.472;13.108;2023-06-24T04:25:17;14.80;99.90
9776;DHT22;4927;52.472;13.108;2023-06-24T04:26:19;14.80;99.90
9776;DHT22;4927;52.472;13.108;2023-06-24T04:27:20;14.80;99.90
9776;DHT22;4927;52.472;13.108;2023-06-24T04:28:22;14.80;99.90
9776;DHT22;4927;52.472;13.108;2023-06-24T04:29:24;14.90;99.90
9776;DHT22;4927;52.472;13.108;2023-06-24T04:30:25;14.90;99.90
9776;DHT22;4927;52.472;13.108;2023-06-24T04:31:27;14.90;99.90
9776;DHT22;4927;52.472;13.108;2023-06-24T04:32:28;14.90;99.90
9776;DHT22;4927;52.472;13.108;2023-06-24T04:33:30;15.00;99.90
9776;DHT22;4927;52.472;13.108;2023-06-24T04:34:32;15.00;99.90
9776;DHT22;4927;52.472;13.108;2023-06-24T04:35:33;15.00;99.90
9776;DHT22;4927;52.472;13.108;2023-06-24T04:36:36;15.10;99.90
9776;DHT22;4927;52.472;13.108;2023-06-24T04:37:37;15.10;99.90
9776;DHT22;4927;52.472;13.108;2023-06-24T04:38:39;15.10;99.90
9776;DHT22;4927;52.472;13.108;2023-06-24T04:39:41;15.10;99.90
9776;DHT22;4927;52.472;13.108;2023-06-24T04:40:42;15.20;99.90
9776;DHT22;4927;52.472;13.108;2023-06-24T04:41:44;15.20;99.90
9776;DHT22;4927;52.472;13.108;2023-06-24T04:42:45;15.20;99.90
9776;DHT22;4927;52.472;13.108;2023-06-24T04:43:47;15.20;99.90
9776;DHT22;4927;52.472;13.108;2023-06-24T04:44:49;15.20;99.90
9776;DHT22;4927;52.472;13.108;2023-06-24T04:45:53;15.20;99.90
9776;DHT22;4927;52.472;13.108;2023-06-24T04:46:55;15.20;99.90
9776;DHT22;4927;52.472;13.108;2023-06-24T04:47:56;15.10;99.90
9776;DHT22;4927;52.472;13.108;2023-06-24T04:48:58;15.20;99.90
9776;DHT22;4927;52.472;13.108;2023-06-24T04:50:00;15.20;99.90
9776;DHT22;4927;52.472;13.108;2023-06-24T04:51:01;15.20;99.90
9776;DHT22;4927;52.472;13.108;2023-06-24T04:52:05;15.20;99.90
9776;DHT22;4927;52.472;13.108;2023-06-24T04:53:06;15.20;99.90
9776;DHT22;4927;52.472;13.108;2023-06-24T04:54:08;15.20;99.90
9776;DHT22;4927;52.472;13.108;2023-06-24T04:55:10;15.20;99.90
9776;DHT22;4927;52.472;13.108;2023-06-24T04:56:11;15.20;99.90
9776;DHT22;4927;52.472;13.108;2023-06-24T04:57:22;15.20;99.90
9776;DHT22;4927;52.472;13.108;2023-06-24T04:58:15;15.20;99.90
9776;DHT22;4927;52.472;13.108;2023-06-24T04:59:16;15.20;99.90
9776;DHT22;4927;52.472;13.108;2023-06-24T05:00:19;15.30;99.90
9776;DHT22;4927;52.472;13.108;2023-06-24T05:01:21;15.30;99.90
9776;DHT22;4927;52.472;13.108;2023-06-24T05:02:22;15.30;99.90
9776;DHT22;4927;52.472;13.108;2023-06-24T05:03:24;15.30;99.90
9776;DHT22;4927;52.472;13.108;2023-06-24T05:04:25;15.30;99.90
9776;DHT22;4927;52.472;13.108;2023-06-24T05:05:27;15.30;99.90
9776;DHT22;4927;52.472;13.108;2023-06-24T05:06:28;15.30;99.90
9776;DHT22;4927;52.472;13.108;2023-06-24T05:07:30;15.30;99.90
9776;DHT22;4927;52.472;13.108;2023-06-24T05:08:32;15.30;99.90
9776;DHT22;4927;52.472;13.108;2023-06-24T05:09:33;15.40;99.90
9776;DHT22;4927;52.472;13.108;2023-06-24T05:10:35;15.40;99.90
9776;DHT22;4927;52.472;13.108;2023-06-24T05:11:36;15.40;99.90
9776;DHT22;4927;52.472;13.108;2023-06-24T05:12:38;15.40;99.90
9776;DHT22;4927;52.472;13.108;2023-06-24T05:13:40;15.40;99.90
9776;DHT22;4927;52.472;13.108;2023-06-24T05:14:41;15.50;99.90
9776;DHT22;4927;52.472;13.108;2023-06-24T05:15:43;15.50;99.90
9776;DHT22;4927;52.472;13.108;2023-06-24T05:16:45;15.60;99.90
9776;DHT22;4927;52.472;13.108;2023-06-24T05:17:46;15.60;99.90
9776;DHT22;4927;52.472;13.108;2023-06-24T05:18:49;15.70;99.90
9776;DHT22;4927;52.472;13.108;2023-06-24T05:19:50;15.70;99.90
9776;DHT22;4927;52.472;13.108;2023-06-24T05:20:52;15.70;99.90
9776;DHT22;4927;52.472;13.108;2023-06-24T05:21:53;15.70;99.90
9776;DHT22;4927;52.472;13.108;2023-06-24T05:22:56;15.80;99.90
9776;DHT22;4927;52.472;13.108;2023-06-24T05:23:58;15.80;99.90
9776;DHT22;4927;52.472;13.108;2023-06-24T05:24:59;15.80;99.90
9776;DHT22;4927;52.472;13.108;2023-06-24T05:26:01;15.80;99.90
9776;DHT22;4927;52.472;13.108;2023-06-24T05:27:04;15.80;99.90
9776;DHT22;4927;52.472;13.108;2023-06-24T05:28:06;15.80;99.90
9776;DHT22;4927;52.472;13.108;2023-06-24T05:29:08;15.80;99.90
9776;DHT22;4927;52.472;13.108;2023-06-24T05:30:10;15.90;99.90
9776;DHT22;4927;52.472;13.108;2023-06-24T05:31:13;15.80;99.90
9776;DHT22;4927;52.472;13.108;2023-06-24T05:32:15;15.90;99.90
9776;DHT22;4927;52.472;13.108;2023-06-24T05:33:16;15.90;99.90
9776;DHT22;4927;52.472;13.108;2023-06-24T05:34:18;15.90;99.90
9776;DHT22;4927;52.472;13.108;2023-06-24T05:35:19;15.90;99.90
9776;DHT22;4927;52.472;13.108;2023-06-24T05:36:21;15.90;99.90
9776;DHT22;4927;52.472;13.108;2023-06-24T05:37:23;16.00;99.90
9776;DHT22;4927;52.472;13.108;2023-06-24T05:38:25;16.00;99.90
9776;DHT22;4927;52.472;13.108;2023-06-24T05:39:27;15.90;99.90
9776;DHT22;4927;52.472;13.108;2023-06-24T05:40:28;16.00;99.90
9776;DHT22;4927;52.472;13.108;2023-06-24T05:41:30;16.00;99.90
9776;DHT22;4927;52.472;13.108;2023-06-24T05:42:31;16.00;99.90
9776;DHT22;4927;52.472;13.108;2023-06-24T05:43:33;16.00;99.90
9776;DHT22;4927;52.472;13.108;2023-06-24T05:44:35;16.00;99.90
9776;DHT22;4927;52.472;13.108;2023-06-24T05:45:36;16.10;99.90
9776;DHT22;4927;52.472;13.108;2023-06-24T05:46:38;16.10;99.90
9776;DHT22;4927;52.472;13.108;2023-06-24T05:47:40;16.10;99.90
9776;DHT22;4927;52.472;13.108;2023-06-24T05:48:41;16.10;99.90
9776;DHT22;4927;52.472;13.108;2023-06-24T05:49:44;16.10;99.90
9776;DHT22;4927;52.472;13.108;2023-06-24T05:50:45;16.10;99.90
9776;DHT22;4927;52.472;13.108;2023-06-24T05:51:47;16.10;99.90
9776;DHT22;4927;52.472;13.108;2023-06-24T05:52:48;16.10;99.90
9776;DHT22;4927;52.472;13.108;2023-06-24T05:53:57;16.10;99.90
9776;DHT22;4927;52.472;13.108;2023-06-24T05:54:59;16.20;99.90
9776;DHT22;4927;52.472;13.108;2023-06-24T05:56:00;16.20;99.90
9776;DHT22;4927;52.472;13.108;2023-06-24T05:57:02;16.20;99.90
9776;DHT22;4927;52.472;13.108;2023-06-24T05:58:05;16.20;99.90
9776;DHT22;4927;52.472;13.108;2023-06-24T05:59:07;16.20;99.90
9776;DHT22;4927;52.472;13.108;2023-06-24T06:00:09;16.20;99.90
9776;DHT22;4927;52.472;13.108;2023-06-24T06:01:12;16.20;99.90
9776;DHT22;4927;52.472;13.108;2023-06-24T06:02:13;16.20;99.90
9776;DHT22;4927;52.472;13.108;2023-06-24T06:03:15;16.30;99.90
9776;DHT22;4927;52.472;13.108;2023-06-24T06:04:17;16.30;99.90
9776;DHT22;4927;52.472;13.108;2023-06-24T06:05:19;16.30;99.90
9776;DHT22;4927;52.472;13.108;2023-06-24T06:06:21;16.30;99.90
9776;DHT22;4927;52.472;13.108;2023-06-24T06:07:23;16.30;99.90
9776;DHT22;4927;52.472;13.108;2023-06-24T06:08:24;16.30;99.90
9776;DHT22;4927;52.472;13.108;2023-06-24T06:09:26;16.40;99.90
9776;DHT22;4927;52.472;13.108;2023-06-24T06:10:28;16.40;99.90
9776;DHT22;4927;52.472;13.108;2023-06-24T06:11:29;16.40;99.90
9776;DHT22;4927;52.472;13.108;2023-06-24T06:12:31;16.40;99.90
9776;DHT22;4927;52.472;13.108;2023-06-24T06:13:33;16.40;99.90
9776;DHT22;4927;52.472;13.108;2023-06-24T06:14:34;16.40;99.90
9776;DHT22;4927;52.472;13.108;2023-06-24T06:15:36;16.40;99.90
9776;DHT22;4927;52.472;13.108;2023-06-24T06:16:37;16.40;99.90
9776;DHT22;4927;52.472;13.108;2023-06-24T06:17:40;16.40;99.90
9776;DHT22;4927;52.472;13.108;2023-06-24T06:18:41;16.40;99.90
9776;DHT22;4927;52.472;13.108;2023-06-24T06:19:43;16.40;99.90
9776;DHT22;4927;52.472;13.108;2023-06-24T06:20:45;16.40;99.90
9776;DHT22;4927;52.472;13.108;2023-06-24T06:21:46;16.50;99.90
9776;DHT22;4927;52.472;13.108;2023-06-24T06:22:48;16.50;99.90
9776;DHT22;4927;52.472;13.108;2023-06-24T06:23:49;16.40;99.90
9776;DHT22;4927;52.472;13.108;2023-06-24T06:24:51;16.50;99.90
9776;DHT22;4927;52.472;13.108;2023-06-24T06:25:53;16.50;99.90
9776;DHT22;4927;52.472;13.108;2023-06-24T06:26:57;16.50;99.90
9776;DHT22;4927;52.472;13.108;2023-06-24T06:27:58;16.50;99.90
9776;DHT22;4927;52.472;13.108;2023-06-24T06:29:00;16.50;99.90
9776;DHT22;4927;52.472;13.108;2023-06-24T06:30:02;16.50;99.90
9776;DHT22;4927;52.472;13.108;2023-06-24T06:31:04;16.50;99.90
9776;DHT22;4927;52.472;13.108;2023-06-24T06:32:06;16.50;99.90
9776;DHT22;4927;52.472;13.108;2023-06-24T06:33:09;16.50;99.90
9776;DHT22;4927;52.472;13.108;2023-06-24T06:34:10;16.50;99.90
9776;DHT22;4927;52.472;13.108;2023-06-24T06:35:12;16.50;99.90
9776;DHT22;4927;52.472;13.108;2023-06-24T06:36:13;16.60;99.90
9776;DHT22;4927;52.472;13.108;2023-06-24T06:37:15;16.60;99.90
9776;DHT22;4927;52.472;13.108;2023-06-24T06:38:17;16.60;99.90
9776;DHT22;4927;52.472;13.108;2023-06-24T06:39:18;16.60;99.90
9776;DHT22;4927;52.472;13.108;2023-06-24T06:40:20;16.70;99.90
9776;DHT22;4927;52.472;13.108;2023-06-24T06:41:22;16.70;99.90
9776;DHT22;4927;52.472;13.108;2023-06-24T06:42:23;16.70;99.90
9776;DHT22;4927;52.472;13.108;2023-06-24T06:43:25;16.70;99.90
9776;DHT22;4927;52.472;13.108;2023-06-24T06:44:27;16.80;99.90